»·PEaware :: IBE3477 LSZH-LEMD

IBE3477 :: LSZH-LEMD

FLIGHT INFORMATION

Flight Status: Arrived
Operator:
Iberia
More flights by this operator :: More flights under this callsign
Pilot: James B. (24167)
Aircraft: AIRBUS A320
(A320)
More flights by this aircraft type
Origin: LSZH Zurich
Switzerland
Destination: LEMD Barajas
Spain
More flights between these airports :: More routes between these airports
Route: VEBIT T50 ROTOS/N0436F370 UZ669 VADAR NINTU UN869 ZAR UZ245 TERSA
File this flight plan on PilotEdge
Remarks:
Altitude:
(Current/Filed)
36,000ft
Speed:
(Current/Filed)
345kts
Departed: 09-Apr-20 12:29 AM
Arrived: 09-Apr-20 02:17 AM
Distance/Time
Traveled:
669nm/1:48
Distance/Time
To Go:
Arrived

Flight Plot

Page will automatically refresh every two minutes.


Map Options




Map Legend


Flown Route
Filed Route
Departure Airport
Arrival Airport
Navaid (VOR, NDB)
Fix

Horizontal Profiles

Position Reports

Time Latitude Longitude Heading Altitude Ground
Speed
09-Apr-20 00:00 47.450405 8.558603 5 1425ft 0kts
09-Apr-20 00:02 47.450405 8.558603 5 1425ft 0kts
09-Apr-20 00:02 47.450405 8.558603 5 1425ft 0kts
09-Apr-20 00:04 47.450405 8.558603 5 1425ft 0kts
09-Apr-20 00:04 47.450405 8.558603 5 1425ft 0kts
09-Apr-20 00:05 47.450405 8.558603 5 1425ft 0kts
09-Apr-20 00:06 47.450405 8.558603 5 1425ft 0kts
09-Apr-20 00:07 47.450405 8.558603 5 1425ft 0kts
09-Apr-20 00:08 47.450405 8.558603 5 1425ft 0kts
09-Apr-20 00:09 47.450405 8.558603 5 1425ft 0kts
09-Apr-20 00:10 47.450405 8.558603 5 1425ft 0kts
09-Apr-20 00:11 47.450405 8.558603 5 1425ft 0kts
09-Apr-20 00:12 47.450405 8.558603 5 1425ft 0kts
09-Apr-20 00:13 47.450405 8.558603 5 1425ft 0kts
09-Apr-20 00:14 47.450405 8.558603 5 1425ft 0kts
09-Apr-20 00:15 47.450405 8.558603 5 1425ft 0kts
09-Apr-20 00:16 47.450405 8.558603 5 1425ft 0kts
09-Apr-20 00:17 47.450405 8.558603 5 1425ft 0kts
09-Apr-20 00:18 47.450405 8.558603 5 1425ft 0kts
09-Apr-20 00:19 47.450405 8.558603 5 1425ft 0kts
09-Apr-20 00:20 47.450262 8.558584 5 1425ft 2kts
09-Apr-20 00:21 47.449717 8.558512 0 1425ft 2kts
09-Apr-20 00:22 47.449447 8.558956 275 1425ft 0kts
09-Apr-20 00:23 47.449447 8.558955 275 1425ft 0kts
09-Apr-20 00:24 47.449447 8.558955 275 1425ft 0kts
09-Apr-20 00:25 47.449509 8.557959 275 1425ft 4kts
09-Apr-20 00:26 47.448449 8.557586 153 1425ft 6kts
09-Apr-20 00:27 47.446119 8.558034 235 1425ft 9kts
09-Apr-20 00:28 47.452122 8.552158 335 1425ft 117kts
09-Apr-20 00:29 47.495774 8.521904 334 3952ft 185kts
09-Apr-20 00:30 47.537046 8.473347 288 6612ft 228kts
09-Apr-20 00:31 47.512965 8.386140 213 9549ft 265kts
09-Apr-20 00:32 47.432727 8.359297 191 11597ft 330kts
09-Apr-20 00:33 47.363372 8.277704 242 14207ft 351kts
09-Apr-20 00:34 47.318916 8.147151 242 16575ft 363kts
09-Apr-20 00:35 47.271205 8.015190 244 19027ft 373kts
09-Apr-20 00:36 47.230765 7.873277 246 21072ft 386kts
09-Apr-20 00:37 47.188872 7.724365 240 22920ft 399kts
09-Apr-20 00:38 47.120354 7.596481 230 24722ft 406kts
09-Apr-20 00:39 47.049252 7.465045 232 26380ft 414kts
09-Apr-20 00:40 46.976915 7.333723 229 27822ft 423kts
09-Apr-20 00:41 46.902354 7.197150 231 29087ft 434kts
09-Apr-20 00:42 46.828471 7.059345 231 30240ft 443kts
09-Apr-20 00:43 46.750140 6.919103 229 31204ft 454kts
09-Apr-20 00:44 46.669548 6.775042 231 32211ft 460kts
09-Apr-20 00:45 46.600990 6.618623 239 33431ft 457kts
09-Apr-20 00:46 46.534869 6.461187 238 34592ft 454kts
09-Apr-20 00:47 46.469458 6.305299 238 35444ft 456kts
09-Apr-20 00:48 46.403907 6.150976 238 36307ft 453kts
09-Apr-20 00:49 46.337894 5.995848 238 36306ft 453kts
09-Apr-20 00:50 46.271723 5.841343 238 36306ft 453kts
09-Apr-20 00:51 46.205787 5.688241 238 36303ft 453kts
09-Apr-20 00:52 46.138812 5.535308 235 36303ft 453kts
09-Apr-20 00:53 46.067678 5.387078 235 36271ft 453kts
09-Apr-20 00:54 46.002237 5.251298 235 36279ft 453kts
09-Apr-20 00:55 45.933312 5.108997 235 36284ft 452kts
09-Apr-20 00:56 45.866722 4.972196 235 36311ft 452kts
09-Apr-20 00:57 45.804333 4.844624 235 36306ft 452kts
09-Apr-20 00:58 45.736717 4.707011 235 36300ft 452kts
09-Apr-20 00:59 45.667400 4.566638 235 36306ft 453kts
09-Apr-20 01:00 45.595340 4.421458 235 36312ft 453kts
09-Apr-20 01:01 45.524135 4.278727 235 36312ft 453kts
09-Apr-20 01:02 45.455552 4.141904 235 36305ft 453kts
09-Apr-20 01:03 45.373371 3.978811 235 36309ft 453kts
09-Apr-20 01:04 45.298028 3.830191 235 36309ft 453kts
09-Apr-20 01:05 45.224286 3.685483 235 36308ft 453kts
09-Apr-20 01:06 45.150078 3.540594 235 36308ft 453kts
09-Apr-20 01:07 45.077010 3.398646 235 36306ft 453kts
09-Apr-20 01:08 45.003658 3.256854 234 36305ft 453kts
09-Apr-20 01:09 44.931547 3.111104 238 36272ft 453kts
09-Apr-20 01:10 44.864051 2.963361 238 36279ft 452kts
09-Apr-20 01:11 44.792780 2.816415 236 36277ft 452kts
09-Apr-20 01:12 44.720965 2.671435 237 36284ft 452kts
09-Apr-20 01:13 44.648863 2.526609 237 36289ft 451kts
09-Apr-20 01:14 44.580803 2.378742 240 36280ft 449kts
09-Apr-20 01:15 44.514451 2.230946 239 36270ft 449kts
09-Apr-20 01:16 44.447718 2.083289 239 36279ft 448kts
09-Apr-20 01:17 44.380623 1.935595 239 36281ft 448kts
09-Apr-20 01:18 44.313413 1.788398 239 36274ft 447kts
09-Apr-20 01:19 44.246616 1.642722 240 36269ft 447kts
09-Apr-20 01:20 44.178831 1.495463 240 36245ft 448kts
09-Apr-20 01:21 44.111499 1.350346 240 36255ft 449kts
09-Apr-20 01:22 44.044298 1.205917 240 36264ft 449kts
09-Apr-20 01:23 43.976338 1.060590 240 36271ft 448kts
09-Apr-20 01:24 43.908182 0.915588 240 36252ft 447kts
09-Apr-20 01:25 43.821734 0.790664 225 36249ft 454kts
09-Apr-20 01:26 43.727367 0.674398 225 36240ft 453kts
09-Apr-20 01:27 43.632929 0.558432 225 36237ft 453kts
09-Apr-20 01:28 43.538843 0.443402 225 36226ft 453kts
09-Apr-20 01:29 43.444922 0.329071 224 36225ft 453kts
09-Apr-20 01:30 43.351617 0.216015 225 36226ft 452kts
09-Apr-20 01:31 43.258368 0.103527 225 36225ft 452kts
09-Apr-20 01:32 43.164242 -0.009536 225 36225ft 452kts
09-Apr-20 01:33 43.069818 -0.122477 225 36225ft 451kts
09-Apr-20 01:34 42.975204 -0.235165 225 36226ft 451kts
09-Apr-20 01:35 42.880933 -0.346966 225 36224ft 451kts
09-Apr-20 01:36 42.780224 -0.449702 207 36225ft 463kts
09-Apr-20 01:37 42.660758 -0.512700 206 36225ft 465kts
09-Apr-20 01:38 42.540158 -0.575924 206 36251ft 464kts
09-Apr-20 01:39 42.419748 -0.638823 206 36251ft 464kts
09-Apr-20 01:40 42.299952 -0.701145 205 36252ft 465kts
09-Apr-20 01:41 42.179286 -0.763666 205 36252ft 467kts
09-Apr-20 01:42 42.058009 -0.826237 205 36252ft 466kts
09-Apr-20 01:43 41.937300 -0.888267 205 36252ft 467kts
09-Apr-20 01:44 41.817752 -0.949450 206 36252ft 466kts
09-Apr-20 01:45 41.696939 -1.011024 206 36253ft 465kts
09-Apr-20 01:46 41.595743 -1.105868 228 36253ft 438kts
09-Apr-20 01:47 41.504778 -1.215677 228 36255ft 440kts
09-Apr-20 01:48 41.413997 -1.324646 227 36264ft 440kts
09-Apr-20 01:49 41.323951 -1.432304 227 36254ft 439kts
09-Apr-20 01:50 41.232837 -1.540815 227 36249ft 438kts
09-Apr-20 01:51 41.142130 -1.648431 227 34070ft 448kts
09-Apr-20 01:52 41.049379 -1.757979 227 31660ft 446kts
09-Apr-20 01:53 40.958214 -1.865248 227 29053ft 427kts
09-Apr-20 01:54 40.872336 -1.965957 227 26790ft 411kts
09-Apr-20 01:55 40.787882 -2.064641 227 24857ft 396kts
09-Apr-20 01:56 40.706225 -2.159704 226 22936ft 385kts
09-Apr-20 01:57 40.625508 -2.253150 225 20998ft 380kts
09-Apr-20 01:58 40.546814 -2.343954 224 19018ft 367kts
09-Apr-20 01:59 40.470352 -2.431910 224 17030ft 355kts
09-Apr-20 02:00 40.396740 -2.516327 223 15155ft 342kts
09-Apr-20 02:01 40.312478 -2.574347 203 13283ft 341kts
09-Apr-20 02:02 40.259866 -2.662021 268 11410ft 322kts
09-Apr-20 02:03 40.259193 -2.775600 268 10325ft 292kts
09-Apr-20 02:05 40.258328 -2.879932 268 9140ft 278kts
09-Apr-20 02:06 40.257354 -2.980931 268 7802ft 273kts
09-Apr-20 02:07 40.256301 -3.080398 268 6476ft 268kts
09-Apr-20 02:08 40.255250 -3.173486 268 6006ft 236kts
09-Apr-20 02:09 40.254241 -3.257213 268 5588ft 215kts
09-Apr-20 02:10 40.253568 -3.332315 281 5100ft 200kts
09-Apr-20 02:11 40.294123 -3.382170 323 4515ft 194kts
09-Apr-20 02:12 40.331793 -3.420313 322 4020ft 149kts
09-Apr-20 02:13 40.364607 -3.453736 322 4017ft 148kts
09-Apr-20 02:14 40.396765 -3.486433 322 3655ft 140kts
09-Apr-20 02:15 40.427805 -3.518057 322 2906ft 142kts
09-Apr-20 02:16 40.459125 -3.549860 322 2143ft 141kts
09-Apr-20 02:17 40.477691 -3.569619 297 2007ft 17kts
09-Apr-20 02:18 40.478322 -3.572097 323 2007ft 9kts
09-Apr-20 02:19 40.481130 -3.574946 322 2007ft 14kts
09-Apr-20 02:20 40.484432 -3.579191 306 2007ft 18kts
09-Apr-20 02:21 40.487630 -3.581779 269 2007ft 10kts
09-Apr-20 02:22 40.487615 -3.586276 270 2007ft 14kts
09-Apr-20 02:23 40.487977 -3.589049 324 2007ft 1kts
09-Apr-20 02:24 40.488394 -3.589876 269 2007ft 0kts
09-Apr-20 02:25 40.488394 -3.589893 269 2007ft 0kts

Navigation Log

Ident Type
Flight plan parsing failed, navigation log unavailable